Bookmark and Share
Track history (hours):
 

Amavisti

Last reported at 2014-Apr-16 09:07 UTC. Time now 2014-Apr-16 13:41 UTC.
Position N 38°30' E 009°11'.

Length 116 m; draft 6.2 m.

Type: Cargo ship. MMSI: 305086000.

NotesDate/timePositionNaut miles runAvg speedWind from/ knotsBaromVisibWave heightAir tempDewpointWater temp
2014-Apr-16 09:07N 38°30' E 009°11'610.3
2014-Apr-16 08:34N 38°32' E 009°04'1110.5
2014-Apr-16 07:33N 38°35' E 008°51'1110.7
2014-Apr-16 06:33N 38°40' E 008°39'1210.6
2014-Apr-16 05:25N 38°44' E 008°25'2010.2
2014-Apr-16 03:27N 38°52' E 008°01'238 9.9
2014-Apr-15 03:33N 40°26' E 003°18'1110.6
2014-Apr-15 02:33N 40°30' E 003°05'1110.6
2014-Apr-15 01:34N 40°34' E 002°52'1110.7
2014-Apr-15 00:33N 40°38' E 002°39'1110.6
2014-Apr-14 23:33N 40°42' E 002°26'1110.8
2014-Apr-14 22:33N 40°46' E 002°12'1010.2
2014-Apr-14 21:33N 40°49' E 001°60'1010.3
2014-Apr-14 20:33N 40°53' E 001°47'1110.7
2014-Apr-14 19:34N 40°57' E 001°34'1110.8
2014-Apr-14 18:33N 41°01' E 001°21'7 7.2
2014-Apr-14 17:34N 41°06' E 001°14'2 0.1
2014-Apr-13 16:10N 41°05' E 001°15'0 0.2
2014-Apr-13 15:31N 41°05' E 001°15'0 0.0
2014-Apr-12 21:33N 41°05' E 001°15'0 0.0
2014-Apr-12 20:29N 41°05' E 001°15'0 0.0
2014-Apr-12 19:09N 41°05' E 001°15'0 0.0
2014-Apr-12 18:33N 41°05' E 001°15'0 0.0
2014-Apr-12 17:26N 41°05' E 001°15'0 0.0
2014-Apr-12 16:23N 41°05' E 001°15'0 0.0
2014-Apr-12 14:27N 41°05' E 001°15'0 0.0
2014-Apr-12 06:33N 41°05' E 001°15'0 0.1
2014-Apr-12 04:33N 41°05' E 001°15'0 0.0
2014-Apr-12 03:30N 41°05' E 001°15'0 0.0
2014-Apr-12 01:21N 41°05' E 001°15'0 0.0
2014-Apr-12 00:33N 41°05' E 001°15'0 0.0
2014-Apr-11 23:06N 41°05' E 001°15'0 0.0
2014-Apr-11 22:21N 41°05' E 001°15'0 0.1
2014-Apr-11 21:34N 41°05' E 001°15'0 0.0
2014-Apr-11 20:33N 41°05' E 001°15'0 0.1
2014-Apr-11 19:32N 41°05' E 001°15'0 0.0
2014-Apr-11 16:13N 41°05' E 001°15'0 0.1
2014-Apr-11 14:19N 41°05' E 001°15'0 0.0
2014-Apr-11 13:32N 41°05' E 001°15'0 0.0
2014-Apr-11 12:34N 41°05' E 001°15'0 0.0
2014-Apr-11 11:23N 41°05' E 001°15'0 0.0
2014-Apr-11 10:30N 41°05' E 001°15'0 0.0
2014-Apr-11 09:33N 41°05' E 001°15'0 0.0
2014-Apr-11 07:21N 41°05' E 001°15'0 0.0
2014-Apr-11 02:27N 41°05' E 001°15'0 0.1
2014-Apr-11 01:34N 41°05' E 001°15'0 0.0
2014-Apr-10 23:18N 41°05' E 001°15'0 0.0
2014-Apr-10 22:30N 41°05' E 001°15'0 0.0
2014-Apr-10 21:18N 41°05' E 001°15'0 0.0
2014-Apr-10 20:31N 41°05' E 001°15'0 0.0
2014-Apr-10 19:32N 41°05' E 001°15'0 0.0
2014-Apr-10 18:32N 41°05' E 001°15'0 0.0
2014-Apr-10 17:34N 41°05' E 001°15'0 0.0
2014-Apr-10 16:31N 41°05' E 001°15'0 0.0
2014-Apr-10 15:31N 41°05' E 001°15'0 0.0
2014-Apr-10 14:32N 41°05' E 001°15'0 0.0
2014-Apr-10 13:34N 41°05' E 001°15'0 0.0
2014-Apr-10 12:31N 41°05' E 001°15'0 0.0
2014-Apr-10 11:31N 41°05' E 001°15'0 0.0
2014-Apr-10 10:33N 41°05' E 001°15'1 1.2
2014-Apr-10 09:19N 41°04' E 001°13'1 1.3
2014-Apr-10 08:28N 41°06' E 001°13'0 0.0
2014-Apr-10 07:16N 41°06' E 001°13'0 0.0
2014-Apr-10 06:31N 41°06' E 001°13'0 0.0
2014-Apr-10 05:04N 41°06' E 001°13'0 0.0
2014-Apr-10 04:28N 41°06' E 001°13'0 0.0
2014-Apr-10 03:28N 41°06' E 001°13'0 0.0
2014-Apr-09 19:16N 41°06' E 001°13'0 0.0
2014-Apr-09 17:33N 41°06' E 001°13'0 0.0
2014-Apr-09 16:33N 41°06' E 001°13'0 0.0
2014-Apr-09 15:33N 41°06' E 001°13'0 0.0
2014-Apr-09 14:29N 41°06' E 001°13'0 0.0
2014-Apr-09 12:26N 41°06' E 001°13'0 0.0
2014-Apr-09 11:33N 41°06' E 001°13'2 0.1
2014-Apr-08 18:26N 41°06' E 001°16'0 0.0
2014-Apr-08 17:19N 41°06' E 001°16'0 0.0
2014-Apr-08 15:28N 41°06' E 001°16'0 0.0
2014-Apr-08 14:09N 41°06' E 001°16'0 0.0
2014-Apr-07 19:11N 41°06' E 001°16'0 0.0
2014-Apr-07 15:21N 41°06' E 001°16'0 0.0
2014-Apr-07 14:30N 41°06' E 001°16'0 0.0
2014-Apr-07 13:20N 41°06' E 001°16'0 0.0
2014-Apr-07 12:32N 41°06' E 001°16'0 0.0
2014-Apr-07 11:32N 41°06' E 001°16'0 0.0
2014-Apr-07 10:06N 41°06' E 001°16'14 5.7
2014-Apr-07 07:33N 41°04' E 001°35'1010.5
2014-Apr-07 06:34N 41°05' E 001°48'1111.2
2014-Apr-07 05:33N 41°05' E 002°03'1111.4
2014-Apr-07 04:33N 41°06' E 002°18'1211.8
2014-Apr-07 03:33N 41°13' E 002°31'1211.8
2014-Apr-07 02:33N 41°20' E 002°44'1211.6
2014-Apr-07 01:31N 41°28' E 002°56'1211.0
2014-Apr-07 00:29N 41°36' E 003°06'1010.8
2014-Apr-06 23:32N 41°44' E 003°16'2211.0
2014-Apr-06 21:32N 41°60' E 003°36'1110.6
2014-Apr-06 20:32N 42°08' E 003°45'2310.9
2014-Apr-06 18:23N 42°25' E 004°06'1011.5
2014-Apr-06 17:33N 42°33' E 004°14'1211.7
2014-Apr-06 16:33N 42°42' E 004°25'1211.6
2014-Apr-06 15:33N 42°51' E 004°34'1110.9
2014-Apr-06 14:33N 43°00' E 004°41'1212.3
2014-Apr-06 13:33N 43°11' E 004°50'1010.0
2014-Apr-06 12:34N 43°20' E 004°56'6 5.9
2014-Apr-06 11:32N 43°26' E 004°53'0 0.0
2014-Apr-06 10:29N 43°26' E 004°53'0 0.0
2014-Apr-06 09:32N 43°26' E 004°53'  

Dump ship's entire track history

sailing weather and tide predictions

Amavisti — V2CR5 — position and weather